European Highlander — C6SN6 — position and weather

sailwx.info

Track history (hours):
 
Tides and Currents Weather Stations Pressure Air Temp Water Temp Dewpoint Dewpoint Depression Visibility Wind Speed Wind Dir Waves Ship Positions

European Highlander

Operator: P&O Irish Sea Ltd

Last reported at 2017-Jun-27 22:30 UTC. Time now 2017-Jun-27 22:40 UTC.
Position N 54°51' W 005°48'.

Length 161 m; draft 5 m.

Type: Passenger vessel. MMSI: 311404000.

Date/timePositionNaut miles runAvg speedWind from/ knotsBaromVisibWave heightAir tempDewpointWater temp
2017-Jun-27 22:30N 54°51' W 005°48'0 0.0
2017-Jun-27 21:57N 54°51' W 005°48'0 0.0
2017-Jun-27 21:30N 54°51' W 005°48'0 0.0
2017-Jun-27 21:00N 54°51' W 005°48'713.6
2017-Jun-27 20:30N 54°55' W 005°39'1020.6
2017-Jun-27 20:00N 54°59' W 005°22'1116.2
2017-Jun-27 19:20N 54°59' W 005°03'2 4.0
2017-Jun-27 18:55N 54°58' W 005°01'0 0.0
2017-Jun-27 18:28N 54°58' W 005°01'0 0.0
2017-Jun-27 17:55N 54°58' W 005°01'0 0.0
2017-Jun-27 17:30N 54°58' W 005°01'5 9.9
2017-Jun-27 17:00N 55°02' W 005°06'918.0
2017-Jun-27 16:30N 54°58' W 005°21'917.5
2017-Jun-27 16:00N 54°55' W 005°35'815.9
2017-Jun-27 15:30N 54°51' W 005°48'0 0.8
2017-Jun-27 15:00N 54°51' W 005°48'0 0.0
2017-Jun-27 14:30N 54°51' W 005°48'1212.3
2017-Jun-27 13:30N 54°57' W 005°30'918.0
2017-Jun-27 13:00N 55°00' W 005°15'714.3
2017-Jun-27 12:29N 54°59' W 005°03'1 2.7
2017-Jun-27 11:57N 54°58' W 005°01'0 0.0
2017-Jun-27 11:30N 54°58' W 005°01'5 9.9
2017-Jun-27 11:00N 55°02' W 005°06'816.2
2017-Jun-27 10:30N 54°58' W 005°19'918.0
2017-Jun-27 10:00N 54°54' W 005°34'917.0
2017-Jun-27 09:29N 54°51' W 005°48'0 0.4
2017-Jun-27 08:58N 54°51' W 005°48'0 0.0
2017-Jun-27 08:29N 54°51' W 005°48'712.4
2017-Jun-27 07:53N 54°55' W 005°37'717.5
2017-Jun-27 07:30N 54°58' W 005°26'917.7
2017-Jun-27 07:00N 55°01' W 005°12'714.3
2017-Jun-27 06:30N 54°58' W 005°01'0 0.6
2017-Jun-27 05:58N 54°58' W 005°01'0 0.0
2017-Jun-27 05:28N 54°58' W 005°01'0 0.0
2017-Jun-27 05:00N 54°58' W 005°01'510.5
2017-Jun-27 04:31N 55°02' W 005°07'918.3
2017-Jun-27 04:00N 54°58' W 005°22'918.0
2017-Jun-27 03:31N 54°54' W 005°36'714.8
2017-Jun-27 03:01N 54°51' W 005°48'0 0.3
2017-Jun-27 02:27N 54°51' W 005°48'0 0.0
2017-Jun-27 02:00N 54°51' W 005°48'0 0.0
2017-Jun-27 01:27N 54°51' W 005°48'0 0.0
2017-Jun-27 01:00N 54°51' W 005°48'4 7.3
2017-Jun-27 00:31N 54°53' W 005°43'918.1
2017-Jun-27 00:01N 54°57' W 005°29'917.9
2017-Jun-26 23:30N 55°01' W 005°15'714.7
2017-Jun-26 23:00N 54°59' W 005°03'1 1.9
2017-Jun-26 22:14N 54°58' W 005°01'0 0.0
2017-Jun-26 21:56N 54°58' W 005°01'0 0.0
2017-Jun-26 21:29N 54°58' W 005°01'0 0.0
2017-Jun-26 21:00N 54°58' W 005°01'510.6
2017-Jun-26 20:30N 55°02' W 005°08'817.0
2017-Jun-26 20:01N 54°58' W 005°21'918.6
2017-Jun-26 19:31N 54°54' W 005°36'815.5
2017-Jun-26 19:00N 54°51' W 005°48'0 0.2
2017-Jun-26 18:28N 54°51' W 005°48'0 0.0
2017-Jun-26 17:58N 54°51' W 005°48'0 0.0
2017-Jun-26 17:29N 54°51' W 005°48'4 8.8
2017-Jun-26 17:00N 54°53' W 005°42'816.3
2017-Jun-26 16:30N 54°57' W 005°29'816.8
2017-Jun-26 16:00N 55°00' W 005°16'714.6
2017-Jun-26 15:30N 54°59' W 005°03'2 4.1
2017-Jun-26 14:58N 54°58' W 005°01'5 5.0
2017-Jun-26 13:59N 55°02' W 005°07'1020.8
2017-Jun-26 13:30N 54°58' W 005°22'1020.1
2017-Jun-26 13:00N 54°54' W 005°38'612.5
2017-Jun-26 12:30N 54°51' W 005°48'0 0.0
2017-Jun-26 11:59N 54°51' W 005°48'0 0.0
2017-Jun-26 11:30N 54°51' W 005°48'713.5
2017-Jun-26 11:00N 54°54' W 005°38'918.4
2017-Jun-26 10:30N 54°58' W 005°23'1019.4
2017-Jun-26 10:00N 55°02' W 005°08'510.9
2017-Jun-26 09:30N 54°58' W 005°01'0 0.0
2017-Jun-26 09:00N 54°58' W 005°01'0 0.0
2017-Jun-26 08:30N 54°58' W 005°01'5 9.0
2017-Jun-26 07:57N 55°01' W 005°07'717.1
2017-Jun-26 07:30N 54°59' W 005°19'918.9
2017-Jun-26 07:00N 54°55' W 005°34'916.9
2017-Jun-26 06:29N 54°51' W 005°48'0 0.3
2017-Jun-26 06:00N 54°51' W 005°48'0 0.0
2017-Jun-26 05:30N 54°51' W 005°48'0 0.0
2017-Jun-26 05:00N 54°51' W 005°48'4 9.0
2017-Jun-26 04:30N 54°53' W 005°41'917.7
2017-Jun-26 04:00N 54°57' W 005°28'816.6
2017-Jun-26 03:30N 55°01' W 005°15'714.8
2017-Jun-26 03:00N 54°59' W 005°03'2 2.8
2017-Jun-26 02:25N 54°58' W 005°01'0 0.0
2017-Jun-26 01:58N 54°58' W 005°01'0 0.0
2017-Jun-26 01:25N 54°58' W 005°01'0 0.0
2017-Jun-26 00:04N 54°58' W 005°01'0 0.0
2017-Jun-26 00:01N 54°58' W 005°01'611.2
2017-Jun-25 23:31N 55°02' W 005°08'917.3
2017-Jun-25 23:00N 54°58' W 005°22'918.1
2017-Jun-25 22:30N 54°54' W 005°36'714.8
2017-Jun-25 22:00N 54°51' W 005°48'0 0.1
2017-Jun-25 21:29N 54°51' W 005°48'0 0.0
2017-Jun-25 21:00N 54°51' W 005°48'611.3
2017-Jun-25 20:31N 54°54' W 005°40'816.4
2017-Jun-25 20:00N 54°57' W 005°27'917.2
2017-Jun-25 19:31N 55°01' W 005°13'612.6
2017-Jun-25 19:00N 54°59' W 005°03'1 2.4
2017-Jun-25 18:24N 54°58' W 005°01'0 0.0
2017-Jun-25 18:00N 54°58' W 005°01'0 0.6
2017-Jun-25 17:30N 54°58' W 005°01'612.7
2017-Jun-25 17:00N 55°01' W 005°11'1020.3
2017-Jun-25 16:30N 54°57' W 005°27'1019.6
2017-Jun-25 16:00N 54°53' W 005°42'4 7.4
2017-Jun-25 15:29N 54°51' W 005°48'0 0.0
2017-Jun-25 14:59N 54°51' W 005°48'0 0.0
2017-Jun-25 14:29N 54°51' W 005°48'4 4.3
2017-Jun-25 13:30N 54°53' W 005°42'917.7
2017-Jun-25 13:00N 54°57' W 005°28'916.9
2017-Jun-25 12:30N 55°01' W 005°15'713.6
2017-Jun-25 11:58N 54°59' W 005°03'2 1.2
2017-Jun-25 10:41N 54°58' W 005°01'0 0.0
2017-Jun-25 10:23N 54°58' W 005°01'0 0.0
2017-Jun-25 09:59N 54°58' W 005°01'0 0.0
2017-Jun-25 09:17N 54°58' W 005°01'0 0.0
2017-Jun-25 08:57N 54°58' W 005°01'0 0.0
2017-Jun-25 08:27N 54°58' W 005°01'5 8.8
2017-Jun-25 07:53N 55°02' W 005°06'616.8
2017-Jun-25 07:30N 54°59' W 005°17'918.5
2017-Jun-25 07:00N 54°55' W 005°31'1019.3
2017-Jun-25 06:30N 54°52' W 005°47'1 2.3
2017-Jun-25 06:00N 54°51' W 005°48'0 0.0
2017-Jun-25 05:30N 54°51' W 005°48'0 0.0
2017-Jun-25 05:00N 54°51' W 005°48'0 0.0
2017-Jun-25 04:27N 54°51' W 005°48'0 0.0
2017-Jun-25 04:00N 54°51' W 005°48'0 0.0
2017-Jun-25 03:30N 54°51' W 005°48'0 0.0
2017-Jun-25 03:00N 54°51' W 005°48'0 0.0
2017-Jun-25 02:30N 54°51' W 005°48'0 0.0
2017-Jun-25 01:57N 54°51' W 005°48'0 0.0
2017-Jun-25 01:30N 54°51' W 005°48'0 0.0
2017-Jun-25 01:00N 54°51' W 005°48'0 0.0
2017-Jun-25 00:30N 54°51' W 005°48'0 0.0
2017-Jun-24 23:57N 54°51' W 005°48'0 0.0
2017-Jun-24 23:30N 54°51' W 005°48'0 0.0
2017-Jun-24 22:57N 54°51' W 005°48'0 0.0
2017-Jun-24 22:30N 54°51' W 005°48'0 0.0
2017-Jun-24 22:00N 54°51' W 005°48'0 0.0
2017-Jun-24 21:30N 54°51' W 005°48'0 0.0
2017-Jun-24 21:00N 54°51' W 005°48'510.4
2017-Jun-24 20:29N 54°54' W 005°40'816.0
2017-Jun-24 20:00N 54°57' W 005°28'816.5
2017-Jun-24 19:30N 55°00' W 005°15'713.8
2017-Jun-24 19:00N 54°59' W 005°03'2 3.4
2017-Jun-24 18:30N 54°58' W 005°01'0 0.0
2017-Jun-24 18:00N 54°58' W 005°01'0 0.0
2017-Jun-24 17:30N 54°58' W 005°01'5 8.6
2017-Jun-24 16:56N 55°02' W 005°06'717.5
2017-Jun-24 16:30N 54°58' W 005°18'918.8
2017-Jun-24 16:01N 54°55' W 005°33'917.6
2017-Jun-24 15:30N 54°51' W 005°48'1 0.9
2017-Jun-24 14:55N 54°51' W 005°48'4 4.6
2017-Jun-24 14:00N 54°53' W 005°42'917.9
2017-Jun-24 13:30N 54°57' W 005°28'816.8
2017-Jun-24 13:00N 55°01' W 005°15'714.1
2017-Jun-24 12:30N 54°59' W 005°03'1 2.8
2017-Jun-24 11:59N 54°58' W 005°01'0 0.0
2017-Jun-24 11:29N 54°58' W 005°01'5 9.4
2017-Jun-24 10:57N 55°02' W 005°07'818.0
2017-Jun-24 10:31N 54°58' W 005°19'918.6
2017-Jun-24 10:01N 54°54' W 005°34'917.2
2017-Jun-24 09:31N 54°51' W 005°48'0 0.2
2017-Jun-24 08:56N 54°51' W 005°48'0 0.0
2017-Jun-24 08:30N 54°51' W 005°48'611.4
2017-Jun-24 08:01N 54°54' W 005°39'816.5
2017-Jun-24 07:31N 54°57' W 005°26'816.7
2017-Jun-24 07:01N 55°01' W 005°13'713.5
2017-Jun-24 06:31N 54°59' W 005°02'1 2.3
2017-Jun-24 06:01N 54°58' W 005°01'0 0.0
2017-Jun-24 05:31N 54°58' W 005°01'0 0.0
2017-Jun-24 05:00N 54°58' W 005°01'510.1
2017-Jun-24 04:30N 55°02' W 005°07'817.1
2017-Jun-24 04:00N 54°58' W 005°20'918.3
2017-Jun-24 03:31N 54°55' W 005°35'816.3
2017-Jun-24 03:00N 54°51' W 005°48'0 0.4
2017-Jun-24 02:28N 54°51' W 005°48'0 0.0
2017-Jun-24 01:58N 54°51' W 005°48'0 0.0
2017-Jun-24 01:28N 54°51' W 005°48'0 0.0
2017-Jun-24 00:58N 54°51' W 005°48'4 8.6
2017-Jun-24 00:30N 54°53' W 005°42'917.4
2017-Jun-24 00:00N 54°57' W 005°29'816.7
2017-Jun-23 23:31N 55°00' W 005°15'713.7
2017-Jun-23 22:59N 54°59' W 005°03'2 3.5
2017-Jun-23 22:28N 54°58' W 005°01'0 0.0
2017-Jun-23 21:58N 54°58' W 005°01'0 0.0
2017-Jun-23 21:28N 54°58' W 005°01'0 0.0
2017-Jun-23 20:58N 54°58' W 005°01'5 9.5
2017-Jun-23 20:27N 55°01' W 005°07'716.7
2017-Jun-23 20:01N 54°58' W 005°18'917.9
2017-Jun-23 19:30N 54°55' W 005°33'918.4
2017-Jun-23 19:01N 54°52' W 005°48'1 1.5
2017-Jun-23 18:30N 54°51' W 005°48'0 0.0
2017-Jun-23 18:00N 54°51' W 005°48'0 0.0
2017-Jun-23 17:30N 54°51' W 005°48'4 8.3
2017-Jun-23 17:00N 54°53' W 005°42'917.2
2017-Jun-23 16:31N 54°57' W 005°29'916.9
2017-Jun-23 16:00N 55°00' W 005°15'714.0
2017-Jun-23 15:30N 54°59' W 005°03'2 3.2
2017-Jun-23 14:59N 54°58' W 005°01'0 0.0
2017-Jun-23 14:30N 54°58' W 005°01'1111.1
2017-Jun-23 13:31N 54°58' W 005°20'917.2
2017-Jun-23 13:00N 54°55' W 005°34'816.6
2017-Jun-23 12:30N 54°51' W 005°48'1 0.9
2017-Jun-23 11:53N 54°51' W 005°48'0 0.0
2017-Jun-23 11:27N 54°51' W 005°48'510.8
2017-Jun-23 11:00N 54°54' W 005°41'917.5
2017-Jun-23 10:30N 54°57' W 005°27'817.0
2017-Jun-23 10:00N 55°01' W 005°14'713.1
2017-Jun-23 09:30N 54°59' W 005°03'1 2.6
2017-Jun-23 08:56N 54°58' W 005°01'0 0.0
2017-Jun-23 08:29N 54°58' W 005°01'610.8
2017-Jun-23 07:57N 55°02' W 005°09'717.1
2017-Jun-23 07:30N 54°58' W 005°20'918.4
2017-Jun-23 07:00N 54°54' W 005°35'816.5
2017-Jun-23 06:31N 54°51' W 005°48'0 0.2
2017-Jun-23 06:00N 54°51' W 005°48'0 0.0
2017-Jun-23 05:30N 54°51' W 005°48'0 0.0
2017-Jun-23 05:01N 54°51' W 005°48'510.9
2017-Jun-23 04:30N 54°54' W 005°40'1019.2
2017-Jun-23 04:00N 54°58' W 005°25'1019.8
2017-Jun-23 03:30N 55°02' W 005°09'6 3.0
2017-Jun-23 01:30N 54°58' W 005°01'0 0.0
2017-Jun-23 01:00N 54°58' W 005°01'510.4
2017-Jun-23 00:30N 55°02' W 005°07'918.6
2017-Jun-23 00:00N 54°58' W 005°22'917.5
2017-Jun-22 23:30N 54°54' W 005°36'815.5
2017-Jun-22 23:00N 54°51' W 005°48'0 0.3
2017-Jun-22 22:26N 54°51' W 005°48'0 0.0
2017-Jun-22 21:59N 54°51' W 005°48'0 0.0
2017-Jun-22 21:29N 54°51' W 005°48'0 0.0
2017-Jun-22 21:00N 54°51' W 005°48'611.1
2017-Jun-22 20:29N 54°54' W 005°39'817.0
2017-Jun-22 20:01N 54°57' W 005°27'917.2
2017-Jun-22 19:30N 55°01' W 005°13'612.1
2017-Jun-22 19:00N 54°59' W 005°03'1 2.6
2017-Jun-22 18:26N 54°58' W 005°01'0 0.0
2017-Jun-22 17:59N 54°58' W 005°01'0 0.0
2017-Jun-22 17:30N 54°58' W 005°01'5 9.3
2017-Jun-22 16:59N 55°01' W 005°06'817.0
2017-Jun-22 16:31N 54°58' W 005°19'918.7
2017-Jun-22 16:01N 54°55' W 005°34'917.0
2017-Jun-22 15:30N 54°51' W 005°48'0 0.6
2017-Jun-22 15:00N 54°51' W 005°48'4 4.1
2017-Jun-22 14:00N 54°53' W 005°42'917.8
2017-Jun-22 13:30N 54°57' W 005°28'917.0
2017-Jun-22 13:00N 55°01' W 005°15'714.2
2017-Jun-22 12:30N 54°59' W 005°03'2 3.0
2017-Jun-22 11:58N 54°58' W 005°01'0 0.0
2017-Jun-22 11:30N 54°58' W 005°01'510.9
2017-Jun-22 11:00N 55°02' W 005°08'918.7
2017-Jun-22 10:30N 54°58' W 005°23'917.4
2017-Jun-22 10:01N 54°54' W 005°36'714.6
2017-Jun-22 09:30N 54°51' W 005°48'0 0.1
2017-Jun-22 09:00N 54°51' W 005°48'0 0.0
2017-Jun-22 08:30N 54°51' W 005°48'5 9.3
2017-Jun-22 08:00N 54°53' W 005°41'917.0
2017-Jun-22 07:30N 54°57' W 005°28'917.0
2017-Jun-22 07:00N 55°01' W 005°14'713.7
2017-Jun-22 06:30N 54°59' W 005°03'2 3.0
2017-Jun-22 06:00N 54°58' W 005°01'0 0.0
2017-Jun-22 05:24N 54°58' W 005°01'0 0.0
2017-Jun-22 05:00N 54°58' W 005°01'510.6
2017-Jun-22 04:30N 55°01' W 005°07'816.8
2017-Jun-22 04:00N 54°58' W 005°20'918.7
2017-Jun-22 03:30N 54°54' W 005°35'815.8
2017-Jun-22 03:01N 54°51' W 005°48'0 0.2
2017-Jun-22 02:29N 54°51' W 005°48'0 0.0
2017-Jun-22 01:59N 54°51' W 005°48'0 0.0
2017-Jun-22 01:29N 54°51' W 005°48'0 0.0
2017-Jun-22 01:00N 54°51' W 005°48'611.7
2017-Jun-22 00:31N 54°54' W 005°39'918.5
2017-Jun-22 00:01N 54°58' W 005°25'917.5
2017-Jun-21 23:31N 55°01' W 005°11'713.5
2017-Jun-21 23:00N 54°58' W 005°01'0 0.0
2017-Jun-21 22:25N 54°58' W 005°01'0 0.0
2017-Jun-21 21:49N 54°58' W 005°01'0 0.0
2017-Jun-21 21:28N 54°58' W 005°01'0 0.0
2017-Jun-21 20:58N 54°58' W 005°01'5 9.8
2017-Jun-21 20:27N 55°01' W 005°07'817.8
2017-Jun-21 20:00N 54°59' W 005°20'918.1
2017-Jun-21 19:30N 54°55' W 005°34'917.3
2017-Jun-21 19:01N 54°51' W 005°48'1 1.1
2017-Jun-21 18:28N 54°51' W 005°48'0 0.0
2017-Jun-21 17:52N 54°51' W 005°48'0 0.0
2017-Jun-21 17:30N 54°51' W 005°48'611.0
2017-Jun-21 17:00N 54°54' W 005°40'917.1
2017-Jun-21 16:30N 54°58' W 005°27'816.9
2017-Jun-21 16:00N 55°01' W 005°13'713.8
2017-Jun-21 15:30N 54°59' W 005°02'1 1.7
2017-Jun-21 14:51N 54°58' W 005°01'5 5.5
2017-Jun-21 13:57N 55°01' W 005°07'919.3
2017-Jun-21 13:31N 54°58' W 005°20'1020.5
2017-Jun-21 13:00N 54°54' W 005°37'714.2
2017-Jun-21 12:30N 54°51' W 005°48'0 0.1
2017-Jun-21 11:58N 54°51' W 005°48'0 0.0
2017-Jun-21 11:29N 54°51' W 005°48'510.8
2017-Jun-21 11:00N 54°54' W 005°40'918.6
2017-Jun-21 10:30N 54°58' W 005°26'917.6
2017-Jun-21 10:00N 55°01' W 005°12'714.2
2017-Jun-21 09:30N 54°58' W 005°01'0 0.1
2017-Jun-21 08:52N 54°58' W 005°01'0 0.0
2017-Jun-21 08:30N 54°58' W 005°01'510.9
2017-Jun-21 08:00N 55°02' W 005°08'917.4
2017-Jun-21 07:31N 54°58' W 005°21'917.6
2017-Jun-21 07:00N 54°54' W 005°36'815.6
2017-Jun-21 06:30N 54°51' W 005°48'0 0.2
2017-Jun-21 05:59N 54°51' W 005°48'0 0.0
2017-Jun-21 05:29N 54°51' W 005°48'0 0.0
2017-Jun-21 05:00N 54°51' W 005°48'4 8.6
2017-Jun-21 04:31N 54°53' W 005°42'1019.9
2017-Jun-21 04:00N 54°58' W 005°26'1020.5
2017-Jun-21 03:31N 55°01' W 005°10'612.2
2017-Jun-21 03:00N 54°58' W 005°01'0 0.0
2017-Jun-21 02:30N 54°58' W 005°01'0 0.0
2017-Jun-21 02:00N 54°58' W 005°01'0 0.0
2017-Jun-21 01:30N 54°58' W 005°01'0 0.0
2017-Jun-21 01:00N 54°58' W 005°01'5 7.5
2017-Jun-21 00:21N 55°02' W 005°06'720.0
2017-Jun-21 00:00N 54°60' W 005°18'1020.3
2017-Jun-20 23:30N 54°55' W 005°34'918.1
2017-Jun-20 23:00N 54°51' W 005°48'0 0.3
2017-Jun-20 22:26N 54°51' W 005°48'0 0.0
2017-Jun-20 21:53N 54°51' W 005°48'0 0.0
2017-Jun-20 21:26N 54°51' W 005°48'0 0.0
2017-Jun-20 20:56N 54°51' W 005°48'4 9.9
2017-Jun-20 20:30N 54°53' W 005°42'918.0
2017-Jun-20 20:00N 54°57' W 005°28'917.3
2017-Jun-20 19:30N 55°01' W 005°14'713.7
2017-Jun-20 19:00N 54°59' W 005°03'2 3.3
2017-Jun-20 18:29N 54°58' W 005°01'0 0.0
2017-Jun-20 17:59N 54°58' W 005°01'0 0.0
2017-Jun-20 17:30N 54°58' W 005°01'5 9.2
2017-Jun-20 17:00N 55°01' W 005°06'1019.4
2017-Jun-20 16:30N 54°58' W 005°21'1020.8
2017-Jun-20 16:00N 54°54' W 005°38'612.9
2017-Jun-20 15:30N 54°51' W 005°48'0 0.0
2017-Jun-20 14:56N 54°51' W 005°48'0 0.0
2017-Jun-20 14:27N 54°51' W 005°48'1313.4
2017-Jun-20 13:31N 54°57' W 005°29'816.3
2017-Jun-20 13:00N 55°00' W 005°15'714.2
2017-Jun-20 12:30N 54°59' W 005°03'2 3.7
2017-Jun-20 11:57N 54°58' W 005°01'0 0.1
2017-Jun-20 11:30N 54°58' W 005°01'611.7
2017-Jun-20 11:01N 55°01' W 005°09'918.4
2017-Jun-20 10:31N 54°57' W 005°23'917.7
2017-Jun-20 10:01N 54°54' W 005°37'713.5
2017-Jun-20 09:30N 54°51' W 005°48'0 0.1
2017-Jun-20 08:58N 54°51' W 005°48'0 0.0
2017-Jun-20 08:31N 54°51' W 005°48'510.6
2017-Jun-20 08:01N 54°54' W 005°40'918.5
2017-Jun-20 07:31N 54°58' W 005°26'918.4
2017-Jun-20 07:00N 55°01' W 005°11'713.0
2017-Jun-20 06:30N 54°58' W 005°01'0 0.0
2017-Jun-20 05:53N 54°58' W 005°01'0 0.0
2017-Jun-20 05:26N 54°58' W 005°01'0 0.0
2017-Jun-20 04:59N 54°58' W 005°01'5 8.7
2017-Jun-20 04:26N 55°02' W 005°06'716.9
2017-Jun-20 04:01N 54°59' W 005°18'1020.2
2017-Jun-20 03:30N 54°55' W 005°34'917.5
2017-Jun-20 03:00N 54°51' W 005°48'0 0.3
2017-Jun-20 02:24N 54°51' W 005°48'0 0.0
2017-Jun-20 02:00N 54°51' W 005°48'0 0.0
2017-Jun-20 01:30N 54°51' W 005°48'0 0.0
2017-Jun-20 01:00N 54°51' W 005°48'2 4.8
2017-Jun-20 00:30N 54°52' W 005°45'918.5
2017-Jun-20 00:00N 54°57' W 005°31'918.3
2017-Jun-19 23:30N 55°00' W 005°16'714.3
2017-Jun-19 23:00N 54°59' W 005°03'2 2.3
2017-Jun-19 22:03N 54°58' W 005°01'0 0.0
2017-Jun-19 22:00N 54°58' W 005°01'0 0.0
2017-Jun-19 21:03N 54°58' W 005°01'0 0.3
2017-Jun-19 21:00N 54°58' W 005°01'510.7
2017-Jun-19 20:31N 55°02' W 005°07'918.0
2017-Jun-19 20:00N 54°58' W 005°22'917.6
2017-Jun-19 19:30N 54°54' W 005°36'815.4
2017-Jun-19 19:01N 54°51' W 005°48'0 0.2
2017-Jun-19 18:29N 54°51' W 005°48'0 0.0
2017-Jun-19 17:59N 54°51' W 005°48'0 0.0
2017-Jun-19 17:30N 54°51' W 005°48'510.5
2017-Jun-19 17:00N 54°54' W 005°41'917.1
2017-Jun-19 16:31N 54°57' W 005°27'917.3
2017-Jun-19 16:01N 55°01' W 005°13'713.1
2017-Jun-19 15:30N 54°59' W 005°02'1 2.0
2017-Jun-19 14:55N 54°58' W 005°01'5 5.0
2017-Jun-19 13:56N 55°01' W 005°07'819.6
2017-Jun-19 13:30N 54°59' W 005°20'1020.5
2017-Jun-19 13:00N 54°54' W 005°36'815.1
2017-Jun-19 12:30N 54°51' W 005°48'0 0.1
2017-Jun-19 12:00N 54°51' W 005°48'0 0.0
2017-Jun-19 11:22N 54°51' W 005°48'3 9.3
2017-Jun-19 11:00N 54°53' W 005°43'918.5
2017-Jun-19 10:30N 54°57' W 005°29'918.1
2017-Jun-19 10:00N 55°00' W 005°14'714.0
2017-Jun-19 09:30N 54°59' W 005°02'1 1.6
2017-Jun-19 08:38N 54°58' W 005°01'0 0.0
2017-Jun-19 08:30N 54°58' W 005°01'5 9.1
2017-Jun-19 07:58N 55°02' W 005°07'818.5
2017-Jun-19 07:30N 54°59' W 005°20'918.2
2017-Jun-19 07:00N 54°55' W 005°35'816.7
2017-Jun-19 06:30N 54°51' W 005°48'0 0.3
2017-Jun-19 05:59N 54°51' W 005°48'0 0.0
2017-Jun-19 05:29N 54°51' W 005°48'0 0.0
2017-Jun-19 04:59N 54°51' W 005°48'2 4.6
2017-Jun-19 04:30N 54°52' W 005°45'918.0
2017-Jun-19 04:00N 54°56' W 005°31'918.3
2017-Jun-19 03:30N 55°00' W 005°17'814.8
2017-Jun-19 02:59N 54°59' W 005°03'2 4.1
2017-Jun-19 02:27N 54°58' W 005°01'0 0.0
2017-Jun-19 01:48N 54°58' W 005°01'0 0.0
2017-Jun-19 01:30N 54°58' W 005°01'0 0.0
2017-Jun-19 00:51N 54°58' W 005°01'0 0.0
2017-Jun-19 00:30N 54°58' W 005°01'0 0.0
2017-Jun-19 00:00N 54°58' W 005°01'5 9.1
2017-Jun-18 23:28N 55°01' W 005°06'920.1
2017-Jun-18 23:00N 54°58' W 005°21'1020.4
2017-Jun-18 22:30N 54°54' W 005°38'713.2
2017-Jun-18 22:00N 54°51' W 005°48'0 0.1
2017-Jun-18 21:29N 54°51' W 005°48'0 0.0
2017-Jun-18 20:59N 54°51' W 005°48'2 4.4
2017-Jun-18 20:30N 54°52' W 005°45'918.6
2017-Jun-18 20:01N 54°57' W 005°32'917.8
2017-Jun-18 19:30N 55°00' W 005°17'814.4
2017-Jun-18 18:57N 54°59' W 005°03'2 3.4
2017-Jun-18 18:23N 54°58' W 005°01'0 0.0
2017-Jun-18 17:59N 54°58' W 005°01'0 0.0
2017-Jun-18 17:30N 54°58' W 005°01'5 9.3
2017-Jun-18 17:00N 55°01' W 005°06'1019.5
2017-Jun-18 16:30N 54°57' W 005°21'1020.4
2017-Jun-18 16:00N 54°54' W 005°37'713.2
2017-Jun-18 15:30N 54°51' W 005°48'0 0.0
2017-Jun-18 15:00N 54°51' W 005°48'0 0.0
2017-Jun-18 14:00N 54°51' W 005°48'612.4
2017-Jun-18 13:30N 54°54' W 005°39'918.0
2017-Jun-18 13:00N 54°58' W 005°25'918.0
2017-Jun-18 12:30N 55°02' W 005°10'612.7
2017-Jun-18 12:00N 54°58' W 005°01'0 0.3
2017-Jun-18 11:19N 54°58' W 005°01'0 0.0
2017-Jun-18 10:58N 54°58' W 005°01'0 0.0
2017-Jun-18 10:28N 54°58' W 005°01'0 0.0
2017-Jun-18 09:58N 54°58' W 005°01'0 0.0
2017-Jun-18 09:25N 54°58' W 005°01'0 0.0
2017-Jun-18 08:58N 54°58' W 005°01'0 0.0
2017-Jun-18 08:30N 54°58' W 005°01'5 9.3
2017-Jun-18 07:59N 55°02' W 005°06'918.5
2017-Jun-18 07:31N 54°58' W 005°20'918.2
2017-Jun-18 07:00N 54°54' W 005°35'816.4
2017-Jun-18 06:30N 54°51' W 005°48'0 0.2
2017-Jun-18 05:59N 54°51' W 005°48'0 0.0
2017-Jun-18 05:30N 54°51' W 005°48'0 0.0
2017-Jun-18 05:01N 54°51' W 005°48'0 0.0
2017-Jun-18 04:31N 54°51' W 005°48'0 0.0
2017-Jun-18 04:01N 54°51' W 005°48'0 0.0
2017-Jun-18 03:31N 54°51' W 005°48'0 0.0
2017-Jun-18 03:00N 54°51' W 005°48'0 0.0
2017-Jun-18 02:31N 54°51' W 005°48'0 0.0
2017-Jun-18 02:01N 54°51' W 005°48'0 0.0
2017-Jun-18 01:30N 54°51' W 005°48'0 0.0
2017-Jun-18 01:01N 54°51' W 005°48'0 0.0
2017-Jun-18 00:31N 54°51' W 005°48'0 0.0
2017-Jun-18 00:01N 54°51' W 005°48'0 0.0
2017-Jun-17 23:31N 54°51' W 005°48'0 0.0
2017-Jun-17 23:01N 54°51' W 005°48'0 0.0
2017-Jun-17 22:30N 54°51' W 005°48'  
Track history (hours):
 
Tides and Currents Weather Stations Pressure Air Temp Water Temp Dewpoint Dewpoint Depression Visibility Wind Speed Wind Dir Waves Ship Positions

European Highlander

Operator: P&O Irish Sea Ltd

Last reported at 2017-Jun-27 22:30 UTC. Time now 2017-Jun-27 22:40 UTC.
Position N 54°51' W 005°48'.

Length 161 m; draft 5 m.

Type: Passenger vessel. MMSI: 311404000.

Date/timePositionNaut miles runAvg speedWind from/ knotsBaromVisibWave heightAir tempDewpointWater temp
2017-Jun-27 22:30N 54°51' W 005°48'0 0.0
2017-Jun-27 21:57N 54°51' W 005°48'0 0.0
2017-Jun-27 21:30N 54°51' W 005°48'0 0.0
2017-Jun-27 21:00N 54°51' W 005°48'713.6
2017-Jun-27 20:30N 54°55' W 005°39'1020.6
2017-Jun-27 20:00N 54°59' W 005°22'1116.2
2017-Jun-27 19:20N 54°59' W 005°03'2 4.0
2017-Jun-27 18:55N 54°58' W 005°01'0 0.0
2017-Jun-27 18:28N 54°58' W 005°01'0 0.0
2017-Jun-27 17:55N 54°58' W 005°01'0 0.0
2017-Jun-27 17:30N 54°58' W 005°01'5 9.9
2017-Jun-27 17:00N 55°02' W 005°06'918.0
2017-Jun-27 16:30N 54°58' W 005°21'917.5
2017-Jun-27 16:00N 54°55' W 005°35'815.9
2017-Jun-27 15:30N 54°51' W 005°48'0 0.8
2017-Jun-27 15:00N 54°51' W 005°48'0 0.0
2017-Jun-27 14:30N 54°51' W 005°48'1212.3
2017-Jun-27 13:30N 54°57' W 005°30'918.0
2017-Jun-27 13:00N 55°00' W 005°15'714.3
2017-Jun-27 12:29N 54°59' W 005°03'1 2.7
2017-Jun-27 11:57N 54°58' W 005°01'0 0.0
2017-Jun-27 11:30N 54°58' W 005°01'5 9.9
2017-Jun-27 11:00N 55°02' W 005°06'816.2
2017-Jun-27 10:30N 54°58' W 005°19'918.0
2017-Jun-27 10:00N 54°54' W 005°34'917.0
2017-Jun-27 09:29N 54°51' W 005°48'0 0.4
2017-Jun-27 08:58N 54°51' W 005°48'0 0.0
2017-Jun-27 08:29N 54°51' W 005°48'712.4
2017-Jun-27 07:53N 54°55' W 005°37'717.5
2017-Jun-27 07:30N 54°58' W 005°26'917.7
2017-Jun-27 07:00N 55°01' W 005°12'714.3
2017-Jun-27 06:30N 54°58' W 005°01'0 0.6
2017-Jun-27 05:58N 54°58' W 005°01'0 0.0
2017-Jun-27 05:28N 54°58' W 005°01'0 0.0
2017-Jun-27 05:00N 54°58' W 005°01'510.5
2017-Jun-27 04:31N 55°02' W 005°07'918.3
2017-Jun-27 04:00N 54°58' W 005°22'918.0
2017-Jun-27 03:31N 54°54' W 005°36'714.8
2017-Jun-27 03:01N 54°51' W 005°48'0 0.3
2017-Jun-27 02:27N 54°51' W 005°48'0 0.0
2017-Jun-27 02:00N 54°51' W 005°48'0 0.0
2017-Jun-27 01:27N 54°51' W 005°48'0 0.0
2017-Jun-27 01:00N 54°51' W 005°48'4 7.3
2017-Jun-27 00:31N 54°53' W 005°43'918.1
2017-Jun-27 00:01N 54°57' W 005°29'917.9
2017-Jun-26 23:30N 55°01' W 005°15'714.7
2017-Jun-26 23:00N 54°59' W 005°03'1 1.9
2017-Jun-26 22:14N 54°58' W 005°01'0 0.0
2017-Jun-26 21:56N 54°58' W 005°01'0 0.0
2017-Jun-26 21:29N 54°58' W 005°01'0 0.0
2017-Jun-26 21:00N 54°58' W 005°01'510.6
2017-Jun-26 20:30N 55°02' W 005°08'817.0
2017-Jun-26 20:01N 54°58' W 005°21'918.6
2017-Jun-26 19:31N 54°54' W 005°36'815.5
2017-Jun-26 19:00N 54°51' W 005°48'0 0.2
2017-Jun-26 18:28N 54°51' W 005°48'0 0.0
2017-Jun-26 17:58N 54°51' W 005°48'0 0.0
2017-Jun-26 17:29N 54°51' W 005°48'4 8.8
2017-Jun-26 17:00N 54°53' W 005°42'816.3
2017-Jun-26 16:30N 54°57' W 005°29'816.8
2017-Jun-26 16:00N 55°00' W 005°16'714.6
2017-Jun-26 15:30N 54°59' W 005°03'2 4.1
2017-Jun-26 14:58N 54°58' W 005°01'5 5.0
2017-Jun-26 13:59N 55°02' W 005°07'1020.8
2017-Jun-26 13:30N 54°58' W 005°22'1020.1
2017-Jun-26 13:00N 54°54' W 005°38'612.5
2017-Jun-26 12:30N 54°51' W 005°48'0 0.0
2017-Jun-26 11:59N 54°51' W 005°48'0 0.0
2017-Jun-26 11:30N 54°51' W 005°48'713.5
2017-Jun-26 11:00N 54°54' W 005°38'918.4
2017-Jun-26 10:30N 54°58' W 005°23'1019.4
2017-Jun-26 10:00N 55°02' W 005°08'510.9
2017-Jun-26 09:30N 54°58' W 005°01'0 0.0
2017-Jun-26 09:00N 54°58' W 005°01'0 0.0
2017-Jun-26 08:30N 54°58' W 005°01'5 9.0
2017-Jun-26 07:57N 55°01' W 005°07'717.1
2017-Jun-26 07:30N 54°59' W 005°19'918.9
2017-Jun-26 07:00N 54°55' W 005°34'916.9
2017-Jun-26 06:29N 54°51' W 005°48'0 0.3
2017-Jun-26 06:00N 54°51' W 005°48'0 0.0
2017-Jun-26 05:30N 54°51' W 005°48'0 0.0
2017-Jun-26 05:00N 54°51' W 005°48'4 9.0
2017-Jun-26 04:30N 54°53' W 005°41'917.7
2017-Jun-26 04:00N 54°57' W 005°28'816.6
2017-Jun-26 03:30N 55°01' W 005°15'714.8
2017-Jun-26 03:00N 54°59' W 005°03'2 2.8
2017-Jun-26 02:25N 54°58' W 005°01'0 0.0
2017-Jun-26 01:58N 54°58' W 005°01'0 0.0
2017-Jun-26 01:25N 54°58' W 005°01'0 0.0
2017-Jun-26 00:04N 54°58' W 005°01'0 0.0
2017-Jun-26 00:01N 54°58' W 005°01'611.2
2017-Jun-25 23:31N 55°02' W 005°08'917.3
2017-Jun-25 23:00N 54°58' W 005°22'918.1
2017-Jun-25 22:30N 54°54' W 005°36'714.8
2017-Jun-25 22:00N 54°51' W 005°48'0 0.1
2017-Jun-25 21:29N 54°51' W 005°48'0 0.0
2017-Jun-25 21:00N 54°51' W 005°48'611.3
2017-Jun-25 20:31N 54°54' W 005°40'816.4
2017-Jun-25 20:00N 54°57' W 005°27'917.2
2017-Jun-25 19:31N 55°01' W 005°13'612.6
2017-Jun-25 19:00N 54°59' W 005°03'1 2.4
2017-Jun-25 18:24N 54°58' W 005°01'0 0.0
2017-Jun-25 18:00N 54°58' W 005°01'0 0.6
2017-Jun-25 17:30N 54°58' W 005°01'612.7
2017-Jun-25 17:00N 55°01' W 005°11'1020.3
2017-Jun-25 16:30N 54°57' W 005°27'1019.6
2017-Jun-25 16:00N 54°53' W 005°42'4 7.4
2017-Jun-25 15:29N 54°51' W 005°48'0 0.0
2017-Jun-25 14:59N 54°51' W 005°48'0 0.0
2017-Jun-25 14:29N 54°51' W 005°48'4 4.3
2017-Jun-25 13:30N 54°53' W 005°42'917.7
2017-Jun-25 13:00N 54°57' W 005°28'916.9
2017-Jun-25 12:30N 55°01' W 005°15'713.6
2017-Jun-25 11:58N 54°59' W 005°03'2 1.2
2017-Jun-25 10:41N 54°58' W 005°01'0 0.0
2017-Jun-25 10:23N 54°58' W 005°01'0 0.0
2017-Jun-25 09:59N 54°58' W 005°01'0 0.0
2017-Jun-25 09:17N 54°58' W 005°01'0 0.0
2017-Jun-25 08:57N 54°58' W 005°01'0 0.0
2017-Jun-25 08:27N 54°58' W 005°01'5 8.8
2017-Jun-25 07:53N 55°02' W 005°06'616.8
2017-Jun-25 07:30N 54°59' W 005°17'918.5
2017-Jun-25 07:00N 54°55' W 005°31'1019.3
2017-Jun-25 06:30N 54°52' W 005°47'1 2.3
2017-Jun-25 06:00N 54°51' W 005°48'0 0.0
2017-Jun-25 05:30N 54°51' W 005°48'0 0.0
2017-Jun-25 05:00N 54°51' W 005°48'0 0.0
2017-Jun-25 04:27N 54°51' W 005°48'0 0.0
2017-Jun-25 04:00N 54°51' W 005°48'0 0.0
2017-Jun-25 03:30N 54°51' W 005°48'0 0.0
2017-Jun-25 03:00N 54°51' W 005°48'0 0.0
2017-Jun-25 02:30N 54°51' W 005°48'0 0.0
2017-Jun-25 01:57N 54°51' W 005°48'0 0.0
2017-Jun-25 01:30N 54°51' W 005°48'0 0.0
2017-Jun-25 01:00N 54°51' W 005°48'0 0.0
2017-Jun-25 00:30N 54°51' W 005°48'0 0.0
2017-Jun-24 23:57N 54°51' W 005°48'0 0.0
2017-Jun-24 23:30N 54°51' W 005°48'0 0.0
2017-Jun-24 22:57N 54°51' W 005°48'0 0.0
2017-Jun-24 22:30N 54°51' W 005°48'0 0.0
2017-Jun-24 22:00N 54°51' W 005°48'0 0.0
2017-Jun-24 21:30N 54°51' W 005°48'0 0.0
2017-Jun-24 21:00N 54°51' W 005°48'510.4
2017-Jun-24 20:29N 54°54' W 005°40'816.0
2017-Jun-24 20:00N 54°57' W 005°28'816.5
2017-Jun-24 19:30N 55°00' W 005°15'713.8
2017-Jun-24 19:00N 54°59' W 005°03'2 3.4
2017-Jun-24 18:30N 54°58' W 005°01'0 0.0
2017-Jun-24 18:00N 54°58' W 005°01'0 0.0
2017-Jun-24 17:30N 54°58' W 005°01'5 8.6
2017-Jun-24 16:56N 55°02' W 005°06'717.5
2017-Jun-24 16:30N 54°58' W 005°18'918.8
2017-Jun-24 16:01N 54°55' W 005°33'917.6
2017-Jun-24 15:30N 54°51' W 005°48'1 0.9
2017-Jun-24 14:55N 54°51' W 005°48'4 4.6
2017-Jun-24 14:00N 54°53' W 005°42'917.9
2017-Jun-24 13:30N 54°57' W 005°28'816.8
2017-Jun-24 13:00N 55°01' W 005°15'714.1
2017-Jun-24 12:30N 54°59' W 005°03'1 2.8
2017-Jun-24 11:59N 54°58' W 005°01'0 0.0
2017-Jun-24 11:29N 54°58' W 005°01'5 9.4
2017-Jun-24 10:57N 55°02' W 005°07'818.0
2017-Jun-24 10:31N 54°58' W 005°19'918.6
2017-Jun-24 10:01N 54°54' W 005°34'917.2
2017-Jun-24 09:31N 54°51' W 005°48'0 0.2
2017-Jun-24 08:56N 54°51' W 005°48'0 0.0
2017-Jun-24 08:30N 54°51' W 005°48'611.4
2017-Jun-24 08:01N 54°54' W 005°39'816.5
2017-Jun-24 07:31N 54°57' W 005°26'816.7
2017-Jun-24 07:01N 55°01' W 005°13'713.5
2017-Jun-24 06:31N 54°59' W 005°02'1 2.3
2017-Jun-24 06:01N 54°58' W 005°01'0 0.0
2017-Jun-24 05:31N 54°58' W 005°01'0 0.0
2017-Jun-24 05:00N 54°58' W 005°01'510.1
2017-Jun-24 04:30N 55°02' W 005°07'817.1
2017-Jun-24 04:00N 54°58' W 005°20'918.3
2017-Jun-24 03:31N 54°55' W 005°35'816.3
2017-Jun-24 03:00N 54°51' W 005°48'0 0.4
2017-Jun-24 02:28N 54°51' W 005°48'0 0.0
2017-Jun-24 01:58N 54°51' W 005°48'0 0.0
2017-Jun-24 01:28N 54°51' W 005°48'0 0.0
2017-Jun-24 00:58N 54°51' W 005°48'4 8.6
2017-Jun-24 00:30N 54°53' W 005°42'917.4
2017-Jun-24 00:00N 54°57' W 005°29'816.7
2017-Jun-23 23:31N 55°00' W 005°15'713.7
2017-Jun-23 22:59N 54°59' W 005°03'2 3.5
2017-Jun-23 22:28N 54°58' W 005°01'0 0.0
2017-Jun-23 21:58N 54°58' W 005°01'0 0.0
2017-Jun-23 21:28N 54°58' W 005°01'0 0.0
2017-Jun-23 20:58N 54°58' W 005°01'5 9.5
2017-Jun-23 20:27N 55°01' W 005°07'716.7
2017-Jun-23 20:01N 54°58' W 005°18'917.9
2017-Jun-23 19:30N 54°55' W 005°33'918.4
2017-Jun-23 19:01N 54°52' W 005°48'1 1.5
2017-Jun-23 18:30N 54°51' W 005°48'0 0.0
2017-Jun-23 18:00N 54°51' W 005°48'0 0.0
2017-Jun-23 17:30N 54°51' W 005°48'4 8.3
2017-Jun-23 17:00N 54°53' W 005°42'917.2
2017-Jun-23 16:31N 54°57' W 005°29'916.9
2017-Jun-23 16:00N 55°00' W 005°15'714.0
2017-Jun-23 15:30N 54°59' W 005°03'2 3.2
2017-Jun-23 14:59N 54°58' W 005°01'0 0.0
2017-Jun-23 14:30N 54°58' W 005°01'1111.1
2017-Jun-23 13:31N 54°58' W 005°20'917.2
2017-Jun-23 13:00N 54°55' W 005°34'816.6
2017-Jun-23 12:30N 54°51' W 005°48'1 0.9
2017-Jun-23 11:53N 54°51' W 005°48'0 0.0
2017-Jun-23 11:27N 54°51' W 005°48'510.8
2017-Jun-23 11:00N 54°54' W 005°41'917.5
2017-Jun-23 10:30N 54°57' W 005°27'817.0
2017-Jun-23 10:00N 55°01' W 005°14'713.1
2017-Jun-23 09:30N 54°59' W 005°03'1 2.6
2017-Jun-23 08:56N 54°58' W 005°01'0 0.0
2017-Jun-23 08:29N 54°58' W 005°01'610.8
2017-Jun-23 07:57N 55°02' W 005°09'717.1
2017-Jun-23 07:30N 54°58' W 005°20'918.4
2017-Jun-23 07:00N 54°54' W 005°35'816.5
2017-Jun-23 06:31N 54°51' W 005°48'0 0.2
2017-Jun-23 06:00N 54°51' W 005°48'0 0.0
2017-Jun-23 05:30N 54°51' W 005°48'0 0.0
2017-Jun-23 05:01N 54°51' W 005°48'510.9
2017-Jun-23 04:30N 54°54' W 005°40'1019.2
2017-Jun-23 04:00N 54°58' W 005°25'1019.8
2017-Jun-23 03:30N 55°02' W 005°09'6 3.0
2017-Jun-23 01:30N 54°58' W 005°01'0 0.0
2017-Jun-23 01:00N 54°58' W 005°01'510.4
2017-Jun-23 00:30N 55°02' W 005°07'918.6
2017-Jun-23 00:00N 54°58' W 005°22'917.5
2017-Jun-22 23:30N 54°54' W 005°36'815.5
2017-Jun-22 23:00N 54°51' W 005°48'0 0.3
2017-Jun-22 22:26N 54°51' W 005°48'0 0.0
2017-Jun-22 21:59N 54°51' W 005°48'0 0.0
2017-Jun-22 21:29N 54°51' W 005°48'0 0.0
2017-Jun-22 21:00N 54°51' W 005°48'611.1
2017-Jun-22 20:29N 54°54' W 005°39'817.0
2017-Jun-22 20:01N 54°57' W 005°27'917.2
2017-Jun-22 19:30N 55°01' W 005°13'612.1
2017-Jun-22 19:00N 54°59' W 005°03'1 2.6
2017-Jun-22 18:26N 54°58' W 005°01'0 0.0
2017-Jun-22 17:59N 54°58' W 005°01'0 0.0
2017-Jun-22 17:30N 54°58' W 005°01'5 9.3
2017-Jun-22 16:59N 55°01' W 005°06'817.0
2017-Jun-22 16:31N 54°58' W 005°19'918.7
2017-Jun-22 16:01N 54°55' W 005°34'917.0
2017-Jun-22 15:30N 54°51' W 005°48'0 0.6
2017-Jun-22 15:00N 54°51' W 005°48'4 4.1
2017-Jun-22 14:00N 54°53' W 005°42'917.8
2017-Jun-22 13:30N 54°57' W 005°28'917.0
2017-Jun-22 13:00N 55°01' W 005°15'714.2
2017-Jun-22 12:30N 54°59' W 005°03'2 3.0
2017-Jun-22 11:58N 54°58' W 005°01'0 0.0
2017-Jun-22 11:30N 54°58' W 005°01'510.9
2017-Jun-22 11:00N 55°02' W 005°08'918.7
2017-Jun-22 10:30N 54°58' W 005°23'917.4
2017-Jun-22 10:01N 54°54' W 005°36'714.6
2017-Jun-22 09:30N 54°51' W 005°48'0 0.1
2017-Jun-22 09:00N 54°51' W 005°48'0 0.0
2017-Jun-22 08:30N 54°51' W 005°48'5 9.3
2017-Jun-22 08:00N 54°53' W 005°41'917.0
2017-Jun-22 07:30N 54°57' W 005°28'917.0
2017-Jun-22 07:00N 55°01' W 005°14'713.7
2017-Jun-22 06:30N 54°59' W 005°03'2 3.0
2017-Jun-22 06:00N 54°58' W 005°01'0 0.0
2017-Jun-22 05:24N 54°58' W 005°01'0 0.0
2017-Jun-22 05:00N 54°58' W 005°01'510.6
2017-Jun-22 04:30N 55°01' W 005°07'816.8
2017-Jun-22 04:00N 54°58' W 005°20'918.7
2017-Jun-22 03:30N 54°54' W 005°35'815.8
2017-Jun-22 03:01N 54°51' W 005°48'0 0.2
2017-Jun-22 02:29N 54°51' W 005°48'0 0.0
2017-Jun-22 01:59N 54°51' W 005°48'0 0.0
2017-Jun-22 01:29N 54°51' W 005°48'0 0.0
2017-Jun-22 01:00N 54°51' W 005°48'611.7
2017-Jun-22 00:31N 54°54' W 005°39'918.5
2017-Jun-22 00:01N 54°58' W 005°25'917.5
2017-Jun-21 23:31N 55°01' W 005°11'713.5
2017-Jun-21 23:00N 54°58' W 005°01'0 0.0
2017-Jun-21 22:25N 54°58' W 005°01'0 0.0
2017-Jun-21 21:49N 54°58' W 005°01'0 0.0
2017-Jun-21 21:28N 54°58' W 005°01'0 0.0
2017-Jun-21 20:58N 54°58' W 005°01'5 9.8
2017-Jun-21 20:27N 55°01' W 005°07'817.8
2017-Jun-21 20:00N 54°59' W 005°20'918.1
2017-Jun-21 19:30N 54°55' W 005°34'917.3
2017-Jun-21 19:01N 54°51' W 005°48'1 1.1
2017-Jun-21 18:28N 54°51' W 005°48'0 0.0
2017-Jun-21 17:52N 54°51' W 005°48'0 0.0
2017-Jun-21 17:30N 54°51' W 005°48'611.0
2017-Jun-21 17:00N 54°54' W 005°40'917.1
2017-Jun-21 16:30N 54°58' W 005°27'816.9
2017-Jun-21 16:00N 55°01' W 005°13'713.8
2017-Jun-21 15:30N 54°59' W 005°02'1 1.7
2017-Jun-21 14:51N 54°58' W 005°01'5 5.5
2017-Jun-21 13:57N 55°01' W 005°07'919.3
2017-Jun-21 13:31N 54°58' W 005°20'1020.5
2017-Jun-21 13:00N 54°54' W 005°37'714.2
2017-Jun-21 12:30N 54°51' W 005°48'0 0.1
2017-Jun-21 11:58N 54°51' W 005°48'0 0.0
2017-Jun-21 11:29N 54°51' W 005°48'510.8
2017-Jun-21 11:00N 54°54' W 005°40'918.6
2017-Jun-21 10:30N 54°58' W 005°26'917.6
2017-Jun-21 10:00N 55°01' W 005°12'714.2
2017-Jun-21 09:30N 54°58' W 005°01'0 0.1
2017-Jun-21 08:52N 54°58' W 005°01'0 0.0
2017-Jun-21 08:30N 54°58' W 005°01'510.9
2017-Jun-21 08:00N 55°02' W 005°08'917.4
2017-Jun-21 07:31N 54°58' W 005°21'917.6
2017-Jun-21 07:00N 54°54' W 005°36'815.6
2017-Jun-21 06:30N 54°51' W 005°48'0 0.2
2017-Jun-21 05:59N 54°51' W 005°48'0 0.0
2017-Jun-21 05:29N 54°51' W 005°48'0 0.0
2017-Jun-21 05:00N 54°51' W 005°48'4 8.6
2017-Jun-21 04:31N 54°53' W 005°42'1019.9
2017-Jun-21 04:00N 54°58' W 005°26'1020.5
2017-Jun-21 03:31N 55°01' W 005°10'612.2
2017-Jun-21 03:00N 54°58' W 005°01'0 0.0
2017-Jun-21 02:30N 54°58' W 005°01'0 0.0
2017-Jun-21 02:00N 54°58' W 005°01'0 0.0
2017-Jun-21 01:30N 54°58' W 005°01'0 0.0
2017-Jun-21 01:00N 54°58' W 005°01'5 7.5
2017-Jun-21 00:21N 55°02' W 005°06'720.0
2017-Jun-21 00:00N 54°60' W 005°18'1020.3
2017-Jun-20 23:30N 54°55' W 005°34'918.1
2017-Jun-20 23:00N 54°51' W 005°48'0 0.3
2017-Jun-20 22:26N 54°51' W 005°48'0 0.0
2017-Jun-20 21:53N 54°51' W 005°48'0 0.0
2017-Jun-20 21:26N 54°51' W 005°48'0 0.0
2017-Jun-20 20:56N 54°51' W 005°48'4 9.9
2017-Jun-20 20:30N 54°53' W 005°42'918.0
2017-Jun-20 20:00N 54°57' W 005°28'917.3
2017-Jun-20 19:30N 55°01' W 005°14'713.7
2017-Jun-20 19:00N 54°59' W 005°03'2 3.3
2017-Jun-20 18:29N 54°58' W 005°01'0 0.0
2017-Jun-20 17:59N 54°58' W 005°01'0 0.0
2017-Jun-20 17:30N 54°58' W 005°01'5 9.2
2017-Jun-20 17:00N 55°01' W 005°06'1019.4
2017-Jun-20 16:30N 54°58' W 005°21'1020.8
2017-Jun-20 16:00N 54°54' W 005°38'612.9
2017-Jun-20 15:30N 54°51' W 005°48'0 0.0
2017-Jun-20 14:56N 54°51' W 005°48'0 0.0
2017-Jun-20 14:27N 54°51' W 005°48'1313.4
2017-Jun-20 13:31N 54°57' W 005°29'816.3
2017-Jun-20 13:00N 55°00' W 005°15'714.2
2017-Jun-20 12:30N 54°59' W 005°03'2 3.7
2017-Jun-20 11:57N 54°58' W 005°01'0 0.1
2017-Jun-20 11:30N 54°58' W 005°01'611.7
2017-Jun-20 11:01N 55°01' W 005°09'918.4
2017-Jun-20 10:31N 54°57' W 005°23'917.7
2017-Jun-20 10:01N 54°54' W 005°37'713.5
2017-Jun-20 09:30N 54°51' W 005°48'0 0.1
2017-Jun-20 08:58N 54°51' W 005°48'0 0.0
2017-Jun-20 08:31N 54°51' W 005°48'510.6
2017-Jun-20 08:01N 54°54' W 005°40'918.5
2017-Jun-20 07:31N 54°58' W 005°26'918.4
2017-Jun-20 07:00N 55°01' W 005°11'713.0
2017-Jun-20 06:30N 54°58' W 005°01'0 0.0
2017-Jun-20 05:53N 54°58' W 005°01'0 0.0
2017-Jun-20 05:26N 54°58' W 005°01'0 0.0
2017-Jun-20 04:59N 54°58' W 005°01'5 8.7
2017-Jun-20 04:26N 55°02' W 005°06'716.9
2017-Jun-20 04:01N 54°59' W 005°18'1020.2
2017-Jun-20 03:30N 54°55' W 005°34'917.5
2017-Jun-20 03:00N 54°51' W 005°48'0 0.3
2017-Jun-20 02:24N 54°51' W 005°48'0 0.0
2017-Jun-20 02:00N 54°51' W 005°48'0 0.0
2017-Jun-20 01:30N 54°51' W 005°48'0 0.0
2017-Jun-20 01:00N 54°51' W 005°48'2 4.8
2017-Jun-20 00:30N 54°52' W 005°45'918.5
2017-Jun-20 00:00N 54°57' W 005°31'918.3
2017-Jun-19 23:30N 55°00' W 005°16'714.3
2017-Jun-19 23:00N 54°59' W 005°03'2 2.3
2017-Jun-19 22:03N 54°58' W 005°01'0 0.0
2017-Jun-19 22:00N 54°58' W 005°01'0 0.0
2017-Jun-19 21:03N 54°58' W 005°01'0 0.3
2017-Jun-19 21:00N 54°58' W 005°01'510.7
2017-Jun-19 20:31N 55°02' W 005°07'918.0
2017-Jun-19 20:00N 54°58' W 005°22'917.6
2017-Jun-19 19:30N 54°54' W 005°36'815.4
2017-Jun-19 19:01N 54°51' W 005°48'0 0.2
2017-Jun-19 18:29N 54°51' W 005°48'0 0.0
2017-Jun-19 17:59N 54°51' W 005°48'0 0.0
2017-Jun-19 17:30N 54°51' W 005°48'510.5
2017-Jun-19 17:00N 54°54' W 005°41'917.1
2017-Jun-19 16:31N 54°57' W 005°27'917.3
2017-Jun-19 16:01N 55°01' W 005°13'713.1
2017-Jun-19 15:30N 54°59' W 005°02'1 2.0
2017-Jun-19 14:55N 54°58' W 005°01'5 5.0
2017-Jun-19 13:56N 55°01' W 005°07'819.6
2017-Jun-19 13:30N 54°59' W 005°20'1020.5
2017-Jun-19 13:00N 54°54' W 005°36'815.1
2017-Jun-19 12:30N 54°51' W 005°48'0 0.1
2017-Jun-19 12:00N 54°51' W 005°48'0 0.0
2017-Jun-19 11:22N 54°51' W 005°48'3 9.3
2017-Jun-19 11:00N 54°53' W 005°43'918.5
2017-Jun-19 10:30N 54°57' W 005°29'918.1
2017-Jun-19 10:00N 55°00' W 005°14'714.0
2017-Jun-19 09:30N 54°59' W 005°02'1 1.6
2017-Jun-19 08:38N 54°58' W 005°01'0 0.0
2017-Jun-19 08:30N 54°58' W 005°01'5 9.1
2017-Jun-19 07:58N 55°02' W 005°07'818.5
2017-Jun-19 07:30N 54°59' W 005°20'918.2
2017-Jun-19 07:00N 54°55' W 005°35'816.7
2017-Jun-19 06:30N 54°51' W 005°48'0 0.3
2017-Jun-19 05:59N 54°51' W 005°48'0 0.0
2017-Jun-19 05:29N 54°51' W 005°48'0 0.0
2017-Jun-19 04:59N 54°51' W 005°48'2 4.6
2017-Jun-19 04:30N 54°52' W 005°45'918.0
2017-Jun-19 04:00N 54°56' W 005°31'918.3
2017-Jun-19 03:30N 55°00' W 005°17'814.8
2017-Jun-19 02:59N 54°59' W 005°03'2 4.1
2017-Jun-19 02:27N 54°58' W 005°01'0 0.0
2017-Jun-19 01:48N 54°58' W 005°01'0 0.0
2017-Jun-19 01:30N 54°58' W 005°01'0 0.0
2017-Jun-19 00:51N 54°58' W 005°01'0 0.0
2017-Jun-19 00:30N 54°58' W 005°01'0 0.0
2017-Jun-19 00:00N 54°58' W 005°01'5 9.1
2017-Jun-18 23:28N 55°01' W 005°06'920.1
2017-Jun-18 23:00N 54°58' W 005°21'1020.4
2017-Jun-18 22:30N 54°54' W 005°38'713.2
2017-Jun-18 22:00N 54°51' W 005°48'0 0.1
2017-Jun-18 21:29N 54°51' W 005°48'0 0.0
2017-Jun-18 20:59N 54°51' W 005°48'2 4.4
2017-Jun-18 20:30N 54°52' W 005°45'918.6
2017-Jun-18 20:01N 54°57' W 005°32'917.8
2017-Jun-18 19:30N 55°00' W 005°17'814.4
2017-Jun-18 18:57N 54°59' W 005°03'2 3.4
2017-Jun-18 18:23N 54°58' W 005°01'0 0.0
2017-Jun-18 17:59N 54°58' W 005°01'0 0.0
2017-Jun-18 17:30N 54°58' W 005°01'5 9.3
2017-Jun-18 17:00N 55°01' W 005°06'1019.5
2017-Jun-18 16:30N 54°57' W 005°21'1020.4
2017-Jun-18 16:00N 54°54' W 005°37'713.2
2017-Jun-18 15:30N 54°51' W 005°48'0 0.0
2017-Jun-18 15:00N 54°51' W 005°48'0 0.0
2017-Jun-18 14:00N 54°51' W 005°48'612.4
2017-Jun-18 13:30N 54°54' W 005°39'918.0
2017-Jun-18 13:00N 54°58' W 005°25'918.0
2017-Jun-18 12:30N 55°02' W 005°10'612.7
2017-Jun-18 12:00N 54°58' W 005°01'0 0.3
2017-Jun-18 11:19N 54°58' W 005°01'0 0.0
2017-Jun-18 10:58N 54°58' W 005°01'0 0.0
2017-Jun-18 10:28N 54°58' W 005°01'0 0.0
2017-Jun-18 09:58N 54°58' W 005°01'0 0.0
2017-Jun-18 09:25N 54°58' W 005°01'0 0.0
2017-Jun-18 08:58N 54°58' W 005°01'0 0.0
2017-Jun-18 08:30N 54°58' W 005°01'5 9.3
2017-Jun-18 07:59N 55°02' W 005°06'918.5
2017-Jun-18 07:31N 54°58' W 005°20'918.2
2017-Jun-18 07:00N 54°54' W 005°35'816.4
2017-Jun-18 06:30N 54°51' W 005°48'0 0.2
2017-Jun-18 05:59N 54°51' W 005°48'0 0.0
2017-Jun-18 05:30N 54°51' W 005°48'0 0.0
2017-Jun-18 05:01N 54°51' W 005°48'0 0.0
2017-Jun-18 04:31N 54°51' W 005°48'0 0.0
2017-Jun-18 04:01N 54°51' W 005°48'0 0.0
2017-Jun-18 03:31N 54°51' W 005°48'0 0.0
2017-Jun-18 03:00N 54°51' W 005°48'0 0.0
2017-Jun-18 02:31N 54°51' W 005°48'0 0.0
2017-Jun-18 02:01N 54°51' W 005°48'0 0.0
2017-Jun-18 01:30N 54°51' W 005°48'0 0.0
2017-Jun-18 01:01N 54°51' W 005°48'0 0.0
2017-Jun-18 00:31N 54°51' W 005°48'0 0.0
2017-Jun-18 00:01N 54°51' W 005°48'0 0.0
2017-Jun-17 23:31N 54°51' W 005°48'0 0.0
2017-Jun-17 23:01N 54°51' W 005°48'0 0.0
2017-Jun-17 22:30N 54°51' W 005°48'  

Dump ship's entire track history